sensor_id;sensor_type;location;lat;lon;timestamp;P1;durP1;ratioP1;P2;durP2;ratioP2
9248;SDS011;4660;41.768;26.198;2024-01-16T00:01:19;32.20;;;20.67;;
9248;SDS011;4660;41.768;26.198;2024-01-16T00:03:45;31.77;;;22.50;;
9248;SDS011;4660;41.768;26.198;2024-01-16T00:06:11;32.87;;;21.87;;
9248;SDS011;4660;41.768;26.198;2024-01-16T00:08:37;38.93;;;25.27;;
9248;SDS011;4660;41.768;26.198;2024-01-16T00:11:03;46.77;;;26.90;;
9248;SDS011;4660;41.768;26.198;2024-01-16T00:13:28;46.80;;;30.30;;
9248;SDS011;4660;41.768;26.198;2024-01-16T00:15:54;44.40;;;29.13;;
9248;SDS011;4660;41.768;26.198;2024-01-16T00:18:21;54.77;;;35.30;;
9248;SDS011;4660;41.768;26.198;2024-01-16T00:20:47;45.03;;;27.60;;
9248;SDS011;4660;41.768;26.198;2024-01-16T00:23:13;63.57;;;41.73;;
9248;SDS011;4660;41.768;26.198;2024-01-16T00:25:38;65.57;;;42.77;;
9248;SDS011;4660;41.768;26.198;2024-01-16T00:28:04;71.73;;;43.90;;
9248;SDS011;4660;41.768;26.198;2024-01-16T00:30:30;53.50;;;33.70;;
9248;SDS011;4660;41.768;26.198;2024-01-16T00:32:55;61.40;;;39.83;;
9248;SDS011;4660;41.768;26.198;2024-01-16T00:35:21;59.53;;;35.67;;
9248;SDS011;4660;41.768;26.198;2024-01-16T00:37:46;68.10;;;41.83;;
9248;SDS011;4660;41.768;26.198;2024-01-16T00:40:12;71.87;;;43.70;;
9248;SDS011;4660;41.768;26.198;2024-01-16T00:42:38;64.20;;;40.37;;
9248;SDS011;4660;41.768;26.198;2024-01-16T00:45:04;65.50;;;38.43;;
9248;SDS011;4660;41.768;26.198;2024-01-16T00:47:29;52.07;;;33.70;;
9248;SDS011;4660;41.768;26.198;2024-01-16T00:49:55;54.93;;;33.57;;
9248;SDS011;4660;41.768;26.198;2024-01-16T00:52:21;58.60;;;34.23;;
9248;SDS011;4660;41.768;26.198;2024-01-16T00:54:46;40.07;;;25.50;;
9248;SDS011;4660;41.768;26.198;2024-01-16T00:57:13;55.30;;;32.67;;
9248;SDS011;4660;41.768;26.198;2024-01-16T00:59:40;58.30;;;33.90;;
9248;SDS011;4660;41.768;26.198;2024-01-16T01:02:06;49.43;;;31.37;;
9248;SDS011;4660;41.768;26.198;2024-01-16T01:04:32;50.47;;;31.60;;
9248;SDS011;4660;41.768;26.198;2024-01-16T01:06:58;53.50;;;32.60;;
9248;SDS011;4660;41.768;26.198;2024-01-16T01:09:24;51.50;;;30.13;;
9248;SDS011;4660;41.768;26.198;2024-01-16T01:11:49;56.10;;;34.37;;
9248;SDS011;4660;41.768;26.198;2024-01-16T01:14:15;56.33;;;32.93;;
9248;SDS011;4660;41.768;26.198;2024-01-16T01:16:40;50.73;;;31.27;;
9248;SDS011;4660;41.768;26.198;2024-01-16T01:19:06;53.43;;;31.17;;
9248;SDS011;4660;41.768;26.198;2024-01-16T01:21:32;49.93;;;31.83;;
9248;SDS011;4660;41.768;26.198;2024-01-16T01:23:57;48.73;;;29.27;;
9248;SDS011;4660;41.768;26.198;2024-01-16T01:26:23;55.70;;;32.27;;
9248;SDS011;4660;41.768;26.198;2024-01-16T01:28:48;49.77;;;30.90;;
9248;SDS011;4660;41.768;26.198;2024-01-16T01:31:14;52.77;;;31.93;;
9248;SDS011;4660;41.768;26.198;2024-01-16T01:33:39;53.97;;;33.87;;
9248;SDS011;4660;41.768;26.198;2024-01-16T01:36:05;57.30;;;32.30;;
9248;SDS011;4660;41.768;26.198;2024-01-16T01:38:31;51.33;;;31.57;;
9248;SDS011;4660;41.768;26.198;2024-01-16T01:40:57;51.97;;;31.60;;
9248;SDS011;4660;41.768;26.198;2024-01-16T01:43:25;56.97;;;32.47;;
9248;SDS011;4660;41.768;26.198;2024-01-16T01:48:38;53.67;;;33.17;;
9248;SDS011;4660;41.768;26.198;2024-01-16T01:51:05;50.60;;;30.07;;
9248;SDS011;4660;41.768;26.198;2024-01-16T01:53:31;60.30;;;34.73;;
9248;SDS011;4660;41.768;26.198;2024-01-16T01:55:59;55.20;;;33.37;;
9248;SDS011;4660;41.768;26.198;2024-01-16T01:58:28;54.57;;;32.87;;
9248;SDS011;4660;41.768;26.198;2024-01-16T02:00:54;61.43;;;34.43;;
9248;SDS011;4660;41.768;26.198;2024-01-16T02:03:20;59.93;;;34.80;;
9248;SDS011;4660;41.768;26.198;2024-01-16T02:05:48;57.33;;;34.33;;
9248;SDS011;4660;41.768;26.198;2024-01-16T02:08:14;55.13;;;33.20;;
9248;SDS011;4660;41.768;26.198;2024-01-16T02:10:40;53.90;;;31.93;;
9248;SDS011;4660;41.768;26.198;2024-01-16T02:13:11;49.87;;;30.23;;
9248;SDS011;4660;41.768;26.198;2024-01-16T02:15:36;57.40;;;32.20;;
9248;SDS011;4660;41.768;26.198;2024-01-16T02:18:04;52.10;;;31.87;;
9248;SDS011;4660;41.768;26.198;2024-01-16T02:20:30;53.47;;;31.83;;
9248;SDS011;4660;41.768;26.198;2024-01-16T02:22:56;53.30;;;33.80;;
9248;SDS011;4660;41.768;26.198;2024-01-16T02:25:28;57.80;;;33.67;;
9248;SDS011;4660;41.768;26.198;2024-01-16T02:27:54;55.20;;;32.67;;
9248;SDS011;4660;41.768;26.198;2024-01-16T02:30:20;50.90;;;30.80;;
9248;SDS011;4660;41.768;26.198;2024-01-16T02:32:45;56.63;;;33.83;;
9248;SDS011;4660;41.768;26.198;2024-01-16T02:35:11;54.20;;;30.53;;
9248;SDS011;4660;41.768;26.198;2024-01-16T02:37:37;54.00;;;33.20;;
9248;SDS011;4660;41.768;26.198;2024-01-16T02:40:02;50.90;;;31.90;;
9248;SDS011;4660;41.768;26.198;2024-01-16T02:42:34;58.40;;;33.57;;
9248;SDS011;4660;41.768;26.198;2024-01-16T02:45:00;66.80;;;35.50;;
9248;SDS011;4660;41.768;26.198;2024-01-16T02:47:25;57.17;;;32.83;;
9248;SDS011;4660;41.768;26.198;2024-01-16T02:49:51;54.17;;;33.80;;
9248;SDS011;4660;41.768;26.198;2024-01-16T02:52:16;57.90;;;34.23;;
9248;SDS011;4660;41.768;26.198;2024-01-16T02:54:42;51.60;;;30.30;;
9248;SDS011;4660;41.768;26.198;2024-01-16T02:57:07;49.70;;;29.23;;
9248;SDS011;4660;41.768;26.198;2024-01-16T02:59:33;62.93;;;36.00;;
9248;SDS011;4660;41.768;26.198;2024-01-16T03:01:58;55.37;;;34.27;;
9248;SDS011;4660;41.768;26.198;2024-01-16T03:04:24;60.33;;;35.67;;
9248;SDS011;4660;41.768;26.198;2024-01-16T03:06:49;64.67;;;35.40;;
9248;SDS011;4660;41.768;26.198;2024-01-16T03:09:15;58.77;;;35.87;;
9248;SDS011;4660;41.768;26.198;2024-01-16T03:11:41;44.37;;;23.73;;
9248;SDS011;4660;41.768;26.198;2024-01-16T03:14:06;60.33;;;37.47;;
9248;SDS011;4660;41.768;26.198;2024-01-16T03:16:32;46.33;;;28.47;;
9248;SDS011;4660;41.768;26.198;2024-01-16T03:18:58;60.37;;;35.33;;
9248;SDS011;4660;41.768;26.198;2024-01-16T03:21:23;62.03;;;36.73;;
9248;SDS011;4660;41.768;26.198;2024-01-16T03:23:49;49.60;;;29.33;;
9248;SDS011;4660;41.768;26.198;2024-01-16T03:26:15;60.20;;;36.63;;
9248;SDS011;4660;41.768;26.198;2024-01-16T03:28:41;65.43;;;38.93;;
9248;SDS011;4660;41.768;26.198;2024-01-16T03:31:07;63.07;;;39.17;;
9248;SDS011;4660;41.768;26.198;2024-01-16T03:33:33;67.57;;;39.83;;
9248;SDS011;4660;41.768;26.198;2024-01-16T03:36:00;56.63;;;35.43;;
9248;SDS011;4660;41.768;26.198;2024-01-16T03:38:26;67.53;;;40.80;;
9248;SDS011;4660;41.768;26.198;2024-01-16T03:40:51;54.13;;;30.43;;
9248;SDS011;4660;41.768;26.198;2024-01-16T03:43:17;69.07;;;38.50;;
9248;SDS011;4660;41.768;26.198;2024-01-16T03:45:43;72.30;;;39.90;;
9248;SDS011;4660;41.768;26.198;2024-01-16T03:48:09;69.67;;;39.93;;
9248;SDS011;4660;41.768;26.198;2024-01-16T03:50:35;53.93;;;31.40;;
9248;SDS011;4660;41.768;26.198;2024-01-16T03:53:01;49.83;;;26.23;;
9248;SDS011;4660;41.768;26.198;2024-01-16T03:55:29;66.70;;;41.73;;
9248;SDS011;4660;41.768;26.198;2024-01-16T03:57:55;69.67;;;40.83;;
9248;SDS011;4660;41.768;26.198;2024-01-16T04:00:21;71.40;;;41.03;;
9248;SDS011;4660;41.768;26.198;2024-01-16T04:02:47;70.43;;;40.67;;
9248;SDS011;4660;41.768;26.198;2024-01-16T04:05:12;69.03;;;41.20;;
9248;SDS011;4660;41.768;26.198;2024-01-16T04:07:38;76.20;;;43.73;;
9248;SDS011;4660;41.768;26.198;2024-01-16T04:10:05;73.90;;;43.93;;
9248;SDS011;4660;41.768;26.198;2024-01-16T04:12:31;74.07;;;42.73;;
9248;SDS011;4660;41.768;26.198;2024-01-16T04:14:57;71.43;;;40.93;;
9248;SDS011;4660;41.768;26.198;2024-01-16T04:17:23;69.63;;;39.80;;
9248;SDS011;4660;41.768;26.198;2024-01-16T04:19:48;65.87;;;35.23;;
9248;SDS011;4660;41.768;26.198;2024-01-16T04:22:14;72.27;;;41.40;;
9248;SDS011;4660;41.768;26.198;2024-01-16T04:24:39;75.10;;;39.67;;
9248;SDS011;4660;41.768;26.198;2024-01-16T04:27:05;66.20;;;37.20;;
9248;SDS011;4660;41.768;26.198;2024-01-16T04:29:30;61.23;;;34.87;;
9248;SDS011;4660;41.768;26.198;2024-01-16T04:31:56;53.13;;;30.57;;
9248;SDS011;4660;41.768;26.198;2024-01-16T04:34:22;69.67;;;36.43;;
9248;SDS011;4660;41.768;26.198;2024-01-16T04:36:48;74.93;;;41.73;;
9248;SDS011;4660;41.768;26.198;2024-01-16T04:39:13;66.47;;;40.60;;
9248;SDS011;4660;41.768;26.198;2024-01-16T04:41:39;54.23;;;30.47;;
9248;SDS011;4660;41.768;26.198;2024-01-16T04:44:05;57.37;;;34.03;;
9248;SDS011;4660;41.768;26.198;2024-01-16T04:46:30;72.90;;;42.13;;
9248;SDS011;4660;41.768;26.198;2024-01-16T04:48:56;48.23;;;28.77;;
9248;SDS011;4660;41.768;26.198;2024-01-16T04:51:21;55.20;;;29.67;;
9248;SDS011;4660;41.768;26.198;2024-01-16T04:53:47;70.03;;;37.20;;
9248;SDS011;4660;41.768;26.198;2024-01-16T04:56:12;60.40;;;35.83;;
9248;SDS011;4660;41.768;26.198;2024-01-16T04:58:38;53.60;;;33.40;;
9248;SDS011;4660;41.768;26.198;2024-01-16T05:01:04;55.37;;;31.53;;
9248;SDS011;4660;41.768;26.198;2024-01-16T05:03:29;56.37;;;34.90;;
9248;SDS011;4660;41.768;26.198;2024-01-16T05:05:55;48.03;;;26.70;;
9248;SDS011;4660;41.768;26.198;2024-01-16T05:08:22;60.13;;;34.47;;
9248;SDS011;4660;41.768;26.198;2024-01-16T05:10:48;59.53;;;34.43;;
9248;SDS011;4660;41.768;26.198;2024-01-16T05:13:13;72.87;;;40.57;;
9248;SDS011;4660;41.768;26.198;2024-01-16T05:15:40;75.80;;;38.90;;
9248;SDS011;4660;41.768;26.198;2024-01-16T05:18:06;66.23;;;37.97;;
9248;SDS011;4660;41.768;26.198;2024-01-16T05:20:32;68.57;;;37.90;;
9248;SDS011;4660;41.768;26.198;2024-01-16T05:22:57;64.43;;;38.07;;
9248;SDS011;4660;41.768;26.198;2024-01-16T05:25:23;69.87;;;38.33;;
9248;SDS011;4660;41.768;26.198;2024-01-16T05:27:48;67.73;;;37.23;;
9248;SDS011;4660;41.768;26.198;2024-01-16T05:30:14;64.50;;;36.57;;
9248;SDS011;4660;41.768;26.198;2024-01-16T05:32:40;70.10;;;35.80;;
9248;SDS011;4660;41.768;26.198;2024-01-16T05:35:06;63.97;;;34.63;;
9248;SDS011;4660;41.768;26.198;2024-01-16T05:37:32;60.87;;;36.07;;
9248;SDS011;4660;41.768;26.198;2024-01-16T05:39:58;67.13;;;35.77;;
9248;SDS011;4660;41.768;26.198;2024-01-16T05:42:24;51.13;;;26.20;;
9248;SDS011;4660;41.768;26.198;2024-01-16T05:44:49;60.23;;;34.10;;
9248;SDS011;4660;41.768;26.198;2024-01-16T05:47:15;60.83;;;33.70;;
9248;SDS011;4660;41.768;26.198;2024-01-16T05:49:40;58.37;;;33.93;;
9248;SDS011;4660;41.768;26.198;2024-01-16T05:52:07;55.03;;;30.17;;
9248;SDS011;4660;41.768;26.198;2024-01-16T05:54:33;56.50;;;33.80;;
9248;SDS011;4660;41.768;26.198;2024-01-16T05:56:59;54.50;;;32.77;;
9248;SDS011;4660;41.768;26.198;2024-01-16T05:59:24;53.33;;;30.30;;
9248;SDS011;4660;41.768;26.198;2024-01-16T06:01:50;57.90;;;32.40;;
9248;SDS011;4660;41.768;26.198;2024-01-16T06:04:16;46.17;;;27.60;;
9248;SDS011;4660;41.768;26.198;2024-01-16T06:06:42;60.50;;;30.50;;
9248;SDS011;4660;41.768;26.198;2024-01-16T06:09:10;52.63;;;30.37;;
9248;SDS011;4660;41.768;26.198;2024-01-16T06:11:39;41.70;;;25.27;;
9248;SDS011;4660;41.768;26.198;2024-01-16T06:14:08;35.37;;;20.97;;
9248;SDS011;4660;41.768;26.198;2024-01-16T06:16:35;28.93;;;18.07;;
9248;SDS011;4660;41.768;26.198;2024-01-16T06:19:00;30.00;;;17.37;;
9248;SDS011;4660;41.768;26.198;2024-01-16T06:21:26;36.80;;;22.20;;
9248;SDS011;4660;41.768;26.198;2024-01-16T06:23:52;52.27;;;28.50;;
9248;SDS011;4660;41.768;26.198;2024-01-16T06:26:18;44.80;;;25.37;;
9248;SDS011;4660;41.768;26.198;2024-01-16T06:28:43;42.57;;;24.13;;
9248;SDS011;4660;41.768;26.198;2024-01-16T06:31:09;39.80;;;24.30;;
9248;SDS011;4660;41.768;26.198;2024-01-16T06:33:35;48.40;;;26.33;;
9248;SDS011;4660;41.768;26.198;2024-01-16T06:36:02;45.53;;;27.10;;
9248;SDS011;4660;41.768;26.198;2024-01-16T06:38:29;44.33;;;26.40;;
9248;SDS011;4660;41.768;26.198;2024-01-16T06:40:56;42.80;;;26.30;;
9248;SDS011;4660;41.768;26.198;2024-01-16T06:43:22;45.67;;;27.20;;
9248;SDS011;4660;41.768;26.198;2024-01-16T06:45:47;41.97;;;24.47;;
9248;SDS011;4660;41.768;26.198;2024-01-16T06:48:13;43.10;;;26.93;;
9248;SDS011;4660;41.768;26.198;2024-01-16T06:50:39;41.80;;;26.03;;
9248;SDS011;4660;41.768;26.198;2024-01-16T06:53:04;48.57;;;26.33;;
9248;SDS011;4660;41.768;26.198;2024-01-16T06:55:30;47.03;;;27.70;;
9248;SDS011;4660;41.768;26.198;2024-01-16T06:57:55;39.33;;;21.70;;
9248;SDS011;4660;41.768;26.198;2024-01-16T07:00:21;44.07;;;25.00;;
9248;SDS011;4660;41.768;26.198;2024-01-16T07:02:48;42.50;;;25.30;;
9248;SDS011;4660;41.768;26.198;2024-01-16T07:05:13;41.97;;;24.10;;
9248;SDS011;4660;41.768;26.198;2024-01-16T07:07:39;37.80;;;21.47;;
9248;SDS011;4660;41.768;26.198;2024-01-16T07:10:05;42.10;;;26.87;;
9248;SDS011;4660;41.768;26.198;2024-01-16T07:12:33;47.40;;;25.80;;
9248;SDS011;4660;41.768;26.198;2024-01-16T07:14:59;50.57;;;29.60;;
9248;SDS011;4660;41.768;26.198;2024-01-16T07:17:25;36.27;;;22.50;;
9248;SDS011;4660;41.768;26.198;2024-01-16T07:19:50;46.50;;;26.93;;
9248;SDS011;4660;41.768;26.198;2024-01-16T07:22:16;36.27;;;22.07;;
9248;SDS011;4660;41.768;26.198;2024-01-16T07:24:42;47.27;;;26.60;;
9248;SDS011;4660;41.768;26.198;2024-01-16T07:27:07;69.03;;;35.17;;
9248;SDS011;4660;41.768;26.198;2024-01-16T07:29:33;56.23;;;30.63;;
9248;SDS011;4660;41.768;26.198;2024-01-16T07:32:08;40.20;;;22.63;;
9248;SDS011;4660;41.768;26.198;2024-01-16T07:34:42;35.70;;;18.53;;
9248;SDS011;4660;41.768;26.198;2024-01-16T07:37:08;34.33;;;21.50;;
9248;SDS011;4660;41.768;26.198;2024-01-16T07:39:35;43.60;;;23.87;;
9248;SDS011;4660;41.768;26.198;2024-01-16T07:42:00;42.07;;;22.87;;
9248;SDS011;4660;41.768;26.198;2024-01-16T07:44:26;44.63;;;25.70;;
9248;SDS011;4660;41.768;26.198;2024-01-16T07:46:52;42.90;;;27.57;;
9248;SDS011;4660;41.768;26.198;2024-01-16T07:49:17;43.77;;;28.13;;
9248;SDS011;4660;41.768;26.198;2024-01-16T07:51:43;43.93;;;24.97;;
9248;SDS011;4660;41.768;26.198;2024-01-16T07:54:09;46.97;;;28.83;;
9248;SDS011;4660;41.768;26.198;2024-01-16T07:56:35;53.27;;;28.00;;
9248;SDS011;4660;41.768;26.198;2024-01-16T07:59:02;47.60;;;26.27;;
9248;SDS011;4660;41.768;26.198;2024-01-16T08:01:29;41.20;;;24.97;;
9248;SDS011;4660;41.768;26.198;2024-01-16T08:04:08;47.33;;;28.63;;
9248;SDS011;4660;41.768;26.198;2024-01-16T08:06:35;48.37;;;27.17;;
9248;SDS011;4660;41.768;26.198;2024-01-16T08:09:01;46.20;;;28.70;;
9248;SDS011;4660;41.768;26.198;2024-01-16T08:11:28;46.93;;;28.53;;
9248;SDS011;4660;41.768;26.198;2024-01-16T08:13:56;50.00;;;30.27;;
9248;SDS011;4660;41.768;26.198;2024-01-16T08:16:22;46.03;;;27.97;;
9248;SDS011;4660;41.768;26.198;2024-01-16T08:24:12;52.73;;;29.97;;
9248;SDS011;4660;41.768;26.198;2024-01-16T08:26:43;53.43;;;31.37;;
9248;SDS011;4660;41.768;26.198;2024-01-16T08:29:25;55.03;;;31.97;;
9248;SDS011;4660;41.768;26.198;2024-01-16T08:44:48;26.37;;;18.07;;
9248;SDS011;4660;41.768;26.198;2024-01-16T08:47:41;29.77;;;18.37;;
9248;SDS011;4660;41.768;26.198;2024-01-16T09:01:38;28.73;;;17.77;;
9248;SDS011;4660;41.768;26.198;2024-01-16T09:04:08;30.13;;;20.13;;
9248;SDS011;4660;41.768;26.198;2024-01-16T09:06:34;35.40;;;21.47;;
9248;SDS011;4660;41.768;26.198;2024-01-16T09:09:03;34.07;;;20.90;;
9248;SDS011;4660;41.768;26.198;2024-01-16T09:11:30;23.20;;;15.40;;
9248;SDS011;4660;41.768;26.198;2024-01-16T09:13:57;27.53;;;16.93;;
9248;SDS011;4660;41.768;26.198;2024-01-16T09:16:35;25.70;;;16.87;;
9248;SDS011;4660;41.768;26.198;2024-01-16T09:19:02;24.10;;;16.27;;
9248;SDS011;4660;41.768;26.198;2024-01-16T09:21:28;24.03;;;16.43;;
9248;SDS011;4660;41.768;26.198;2024-01-16T09:24:46;24.20;;;15.90;;
9248;SDS011;4660;41.768;26.198;2024-01-16T09:32:27;22.47;;;13.70;;
9248;SDS011;4660;41.768;26.198;2024-01-16T09:35:10;30.20;;;17.50;;
9248;SDS011;4660;41.768;26.198;2024-01-16T09:37:38;29.00;;;19.00;;
9248;SDS011;4660;41.768;26.198;2024-01-16T09:40:07;28.37;;;18.40;;
9248;SDS011;4660;41.768;26.198;2024-01-16T09:42:39;25.93;;;17.60;;
9248;SDS011;4660;41.768;26.198;2024-01-16T09:45:06;28.60;;;17.73;;
9248;SDS011;4660;41.768;26.198;2024-01-16T09:47:34;29.57;;;18.37;;
9248;SDS011;4660;41.768;26.198;2024-01-16T09:50:04;24.80;;;14.97;;
9248;SDS011;4660;41.768;26.198;2024-01-16T09:52:31;25.70;;;16.57;;
9248;SDS011;4660;41.768;26.198;2024-01-16T09:54:57;24.20;;;16.97;;
9248;SDS011;4660;41.768;26.198;2024-01-16T09:57:25;29.37;;;16.97;;
9248;SDS011;4660;41.768;26.198;2024-01-16T09:59:52;23.63;;;14.93;;
9248;SDS011;4660;41.768;26.198;2024-01-16T10:02:26;23.53;;;14.37;;
9248;SDS011;4660;41.768;26.198;2024-01-16T10:04:53;19.67;;;13.67;;
9248;SDS011;4660;41.768;26.198;2024-01-16T10:07:23;19.40;;;12.40;;
9248;SDS011;4660;41.768;26.198;2024-01-16T10:09:57;17.60;;;11.33;;
9248;SDS011;4660;41.768;26.198;2024-01-16T10:12:24;22.73;;;11.63;;
9248;SDS011;4660;41.768;26.198;2024-01-16T10:14:50;18.80;;;11.23;;
9248;SDS011;4660;41.768;26.198;2024-01-16T10:17:17;13.70;;;10.13;;
9248;SDS011;4660;41.768;26.198;2024-01-16T10:22:24;15.30;;;11.10;;
9248;SDS011;4660;41.768;26.198;2024-01-16T10:31:04;19.13;;;11.87;;
9248;SDS011;4660;41.768;26.198;2024-01-16T10:42:20;14.40;;;10.07;;
9248;SDS011;4660;41.768;26.198;2024-01-16T10:44:53;13.83;;;10.00;;
9248;SDS011;4660;41.768;26.198;2024-01-16T10:47:22;12.00;;;8.37;;
9248;SDS011;4660;41.768;26.198;2024-01-16T10:52:25;9.80;;;7.70;;
9248;SDS011;4660;41.768;26.198;2024-01-16T10:55:03;11.63;;;7.50;;
9248;SDS011;4660;41.768;26.198;2024-01-16T10:57:36;11.77;;;7.20;;
9248;SDS011;4660;41.768;26.198;2024-01-16T11:00:07;12.13;;;7.97;;
9248;SDS011;4660;41.768;26.198;2024-01-16T11:02:43;16.80;;;9.37;;
9248;SDS011;4660;41.768;26.198;2024-01-16T11:05:17;14.10;;;7.83;;
9248;SDS011;4660;41.768;26.198;2024-01-16T11:07:46;12.10;;;8.67;;
9248;SDS011;4660;41.768;26.198;2024-01-16T11:10:15;10.50;;;8.13;;
9248;SDS011;4660;41.768;26.198;2024-01-16T11:17:56;13.37;;;8.00;;
9248;SDS011;4660;41.768;26.198;2024-01-16T11:20:29;14.83;;;8.20;;
9248;SDS011;4660;41.768;26.198;2024-01-16T11:23:03;12.50;;;8.30;;
9248;SDS011;4660;41.768;26.198;2024-01-16T11:25:36;13.10;;;8.60;;
9248;SDS011;4660;41.768;26.198;2024-01-16T11:28:13;13.30;;;8.40;;
9248;SDS011;4660;41.768;26.198;2024-01-16T11:30:40;12.10;;;9.70;;
9248;SDS011;4660;41.768;26.198;2024-01-16T11:36:02;13.17;;;7.20;;
9248;SDS011;4660;41.768;26.198;2024-01-16T11:38:55;13.43;;;6.90;;
9248;SDS011;4660;41.768;26.198;2024-01-16T11:47:17;9.93;;;6.80;;
9248;SDS011;4660;41.768;26.198;2024-01-16T11:49:44;14.87;;;10.13;;
9248;SDS011;4660;41.768;26.198;2024-01-16T11:52:12;9.60;;;6.47;;
9248;SDS011;4660;41.768;26.198;2024-01-16T11:54:41;9.03;;;6.57;;
9248;SDS011;4660;41.768;26.198;2024-01-16T11:57:26;5.57;;;4.13;;
9248;SDS011;4660;41.768;26.198;2024-01-16T12:00:00;7.93;;;5.17;;
9248;SDS011;4660;41.768;26.198;2024-01-16T12:05:12;8.17;;;5.20;;
9248;SDS011;4660;41.768;26.198;2024-01-16T12:17:59;5.17;;;3.50;;
9248;SDS011;4660;41.768;26.198;2024-01-16T12:20:28;6.73;;;4.53;;
9248;SDS011;4660;41.768;26.198;2024-01-16T12:23:02;11.87;;;6.30;;
9248;SDS011;4660;41.768;26.198;2024-01-16T12:28:07;6.50;;;4.27;;
9248;SDS011;4660;41.768;26.198;2024-01-16T12:33:48;4.73;;;3.83;;
9248;SDS011;4660;41.768;26.198;2024-01-16T12:38:55;5.37;;;3.50;;
9248;SDS011;4660;41.768;26.198;2024-01-16T12:41:21;4.23;;;3.40;;
9248;SDS011;4660;41.768;26.198;2024-01-16T12:43:50;4.47;;;3.37;;
9248;SDS011;4660;41.768;26.198;2024-01-16T12:46:17;4.00;;;3.43;;
9248;SDS011;4660;41.768;26.198;2024-01-16T12:48:44;4.57;;;3.57;;
9248;SDS011;4660;41.768;26.198;2024-01-16T12:51:21;4.67;;;3.30;;
9248;SDS011;4660;41.768;26.198;2024-01-16T12:53:49;3.67;;;2.87;;
9248;SDS011;4660;41.768;26.198;2024-01-16T12:56:19;3.90;;;3.10;;
9248;SDS011;4660;41.768;26.198;2024-01-16T13:01:33;5.73;;;2.50;;
9248;SDS011;4660;41.768;26.198;2024-01-16T13:04:04;6.40;;;3.47;;
9248;SDS011;4660;41.768;26.198;2024-01-16T13:09:11;3.13;;;2.43;;
9248;SDS011;4660;41.768;26.198;2024-01-16T13:12:01;3.83;;;3.17;;
9248;SDS011;4660;41.768;26.198;2024-01-16T13:15:10;4.30;;;2.77;;
9248;SDS011;4660;41.768;26.198;2024-01-16T13:17:41;3.83;;;2.40;;
9248;SDS011;4660;41.768;26.198;2024-01-16T13:22:51;2.40;;;2.20;;
9248;SDS011;4660;41.768;26.198;2024-01-16T13:25:28;3.53;;;2.63;;
9248;SDS011;4660;41.768;26.198;2024-01-16T13:27:58;4.27;;;2.63;;
9248;SDS011;4660;41.768;26.198;2024-01-16T13:30:25;2.90;;;2.50;;
9248;SDS011;4660;41.768;26.198;2024-01-16T13:32:51;3.50;;;2.40;;
9248;SDS011;4660;41.768;26.198;2024-01-16T13:35:17;3.40;;;2.60;;
9248;SDS011;4660;41.768;26.198;2024-01-16T13:37:51;2.00;;;1.87;;
9248;SDS011;4660;41.768;26.198;2024-01-16T13:40:25;3.03;;;2.27;;
9248;SDS011;4660;41.768;26.198;2024-01-16T13:48:04;14.70;;;7.73;;
9248;SDS011;4660;41.768;26.198;2024-01-16T13:50:33;2.83;;;2.17;;
9248;SDS011;4660;41.768;26.198;2024-01-16T13:53:00;2.30;;;2.10;;
9248;SDS011;4660;41.768;26.198;2024-01-16T13:55:27;2.70;;;1.93;;
9248;SDS011;4660;41.768;26.198;2024-01-16T13:57:54;3.43;;;1.43;;
9248;SDS011;4660;41.768;26.198;2024-01-16T14:00:20;2.70;;;1.90;;
9248;SDS011;4660;41.768;26.198;2024-01-16T14:02:59;3.37;;;1.90;;
9248;SDS011;4660;41.768;26.198;2024-01-16T14:05:28;3.40;;;2.07;;
9248;SDS011;4660;41.768;26.198;2024-01-16T14:07:54;1.77;;;1.67;;
9248;SDS011;4660;41.768;26.198;2024-01-16T14:10:21;2.60;;;2.07;;
9248;SDS011;4660;41.768;26.198;2024-01-16T14:12:50;3.10;;;2.33;;
9248;SDS011;4660;41.768;26.198;2024-01-16T14:15:37;3.97;;;2.07;;
9248;SDS011;4660;41.768;26.198;2024-01-16T14:18:07;2.30;;;1.80;;
9248;SDS011;4660;41.768;26.198;2024-01-16T14:20:35;3.07;;;2.40;;
9248;SDS011;4660;41.768;26.198;2024-01-16T14:25:37;2.63;;;2.27;;
9248;SDS011;4660;41.768;26.198;2024-01-16T14:28:07;2.47;;;2.20;;
9248;SDS011;4660;41.768;26.198;2024-01-16T14:30:34;2.67;;;1.60;;
9248;SDS011;4660;41.768;26.198;2024-01-16T14:33:00;3.77;;;2.10;;
9248;SDS011;4660;41.768;26.198;2024-01-16T14:40:43;4.63;;;2.60;;
9248;SDS011;4660;41.768;26.198;2024-01-16T14:49:33;3.40;;;2.23;;
9248;SDS011;4660;41.768;26.198;2024-01-16T14:52:25;6.77;;;2.23;;
9248;SDS011;4660;41.768;26.198;2024-01-16T15:02:56;2.63;;;2.07;;
9248;SDS011;4660;41.768;26.198;2024-01-16T15:05:22;2.90;;;2.37;;
9248;SDS011;4660;41.768;26.198;2024-01-16T15:07:48;5.00;;;2.10;;
9248;SDS011;4660;41.768;26.198;2024-01-16T15:10:17;5.13;;;2.50;;
9248;SDS011;4660;41.768;26.198;2024-01-16T15:12:43;7.40;;;3.00;;
9248;SDS011;4660;41.768;26.198;2024-01-16T15:15:28;4.50;;;2.97;;
9248;SDS011;4660;41.768;26.198;2024-01-16T15:17:54;3.93;;;2.50;;
9248;SDS011;4660;41.768;26.198;2024-01-16T15:20:19;4.10;;;2.73;;
9248;SDS011;4660;41.768;26.198;2024-01-16T15:22:45;4.80;;;3.37;;
9248;SDS011;4660;41.768;26.198;2024-01-16T15:25:13;4.90;;;3.00;;
9248;SDS011;4660;41.768;26.198;2024-01-16T15:27:41;4.57;;;2.90;;
9248;SDS011;4660;41.768;26.198;2024-01-16T15:30:13;4.63;;;3.10;;
9248;SDS011;4660;41.768;26.198;2024-01-16T15:32:39;8.17;;;2.90;;
9248;SDS011;4660;41.768;26.198;2024-01-16T15:35:08;6.27;;;4.50;;
9248;SDS011;4660;41.768;26.198;2024-01-16T15:37:37;8.23;;;5.47;;
9248;SDS011;4660;41.768;26.198;2024-01-16T15:40:06;19.27;;;10.33;;
9248;SDS011;4660;41.768;26.198;2024-01-16T15:42:33;10.77;;;5.07;;
9248;SDS011;4660;41.768;26.198;2024-01-16T15:45:01;6.23;;;2.40;;
9248;SDS011;4660;41.768;26.198;2024-01-16T15:47:51;4.43;;;3.20;;
9248;SDS011;4660;41.768;26.198;2024-01-16T15:50:17;4.70;;;2.80;;
9248;SDS011;4660;41.768;26.198;2024-01-16T15:52:43;5.20;;;3.10;;
9248;SDS011;4660;41.768;26.198;2024-01-16T15:55:14;6.03;;;3.70;;
9248;SDS011;4660;41.768;26.198;2024-01-16T15:57:40;3.30;;;2.80;;
9248;SDS011;4660;41.768;26.198;2024-01-16T16:00:06;7.47;;;3.03;;
9248;SDS011;4660;41.768;26.198;2024-01-16T16:02:36;4.60;;;2.47;;
9248;SDS011;4660;41.768;26.198;2024-01-16T16:05:02;5.40;;;3.83;;
9248;SDS011;4660;41.768;26.198;2024-01-16T16:07:28;12.03;;;4.93;;
9248;SDS011;4660;41.768;26.198;2024-01-16T16:09:54;8.03;;;6.00;;
9248;SDS011;4660;41.768;26.198;2024-01-16T16:12:19;6.00;;;3.67;;
9248;SDS011;4660;41.768;26.198;2024-01-16T16:14:46;9.93;;;4.30;;
9248;SDS011;4660;41.768;26.198;2024-01-16T16:17:12;7.10;;;4.30;;
9248;SDS011;4660;41.768;26.198;2024-01-16T16:19:39;10.13;;;5.07;;
9248;SDS011;4660;41.768;26.198;2024-01-16T16:22:05;10.47;;;7.00;;
9248;SDS011;4660;41.768;26.198;2024-01-16T16:24:32;15.67;;;9.67;;
9248;SDS011;4660;41.768;26.198;2024-01-16T16:26:59;21.20;;;12.87;;
9248;SDS011;4660;41.768;26.198;2024-01-16T16:29:25;21.67;;;12.57;;
9248;SDS011;4660;41.768;26.198;2024-01-16T16:31:51;16.50;;;11.27;;
9248;SDS011;4660;41.768;26.198;2024-01-16T16:34:16;18.37;;;11.10;;
9248;SDS011;4660;41.768;26.198;2024-01-16T16:36:45;24.33;;;13.10;;
9248;SDS011;4660;41.768;26.198;2024-01-16T16:39:11;27.73;;;15.03;;
9248;SDS011;4660;41.768;26.198;2024-01-16T16:41:41;26.20;;;13.60;;
9248;SDS011;4660;41.768;26.198;2024-01-16T16:44:07;25.80;;;10.50;;
9248;SDS011;4660;41.768;26.198;2024-01-16T16:46:33;27.87;;;12.23;;
9248;SDS011;4660;41.768;26.198;2024-01-16T16:48:58;30.83;;;13.97;;
9248;SDS011;4660;41.768;26.198;2024-01-16T16:51:25;25.03;;;11.03;;
9248;SDS011;4660;41.768;26.198;2024-01-16T16:53:52;30.03;;;15.30;;